Temp: 16.4°C   Hum: 75%
  Wind: 6.9mph   Dir: SSW (194°)
  Rain: 0.6mm Rate: 0.0mm/hr
  Pressure: 1017.6mb

Historic data

Bath Spa Weather Station Historical Data
Daily Summary for May 17, 2022 Units:  Metric    English   Both
Daily Weekly Monthly Yearly Custom
  High: Low: Average:
Temperature: 22.6 °C 11.7 °C 16.4 °C
Dew Point: 14.8 °C 10.3 °C 12.7 °C
Humidity: 93% 58% 80%
Wind Speed: 23.5km/h 0km/h 6.8km/h
Wind Gust: 35.4km/h - -
Wind- - SSE
Pressure: 1018.2 hPa 1012.8 hPa -
Precipitation: 2.79 mm    
Historical Graphs
 
 
Tabular Data for May 17, 2022
Time Temperature Dew Point Pressure Wind Wind Speed Wind Gust Humidity Rainfall Rate (Hourly) solar
00:09 13.1 °C 11.2 °C 1017.8 hPa South 4.3 km/h 9.7 km/h 88% 0 mm 0 W/m2
00:14 12.9 °C 11 °C 1017.8 hPa South 4 km/h 6.4 km/h 88% 0 mm 0 W/m2
00:19 12.9 °C 11 °C 1017.8 hPa South 0.6 km/h 6.4 km/h 88% 0 mm 0 W/m2
00:24 12.8 °C 11 °C 1017.8 hPa South 2.7 km/h 4.8 km/h 89% 0 mm 0 W/m2
00:29 12.8 °C 11 °C 1017.8 hPa SSE 4 km/h 6.4 km/h 89% 0 mm 0 W/m2
00:34 12.7 °C 10.9 °C 1018.2 hPa SSE 1 km/h 4.8 km/h 89% 0 mm 0 W/m2
00:39 12.7 °C 10.9 °C 1018.2 hPa SSE 3.9 km/h 8 km/h 89% 0 mm 0 W/m2
00:44 12.7 °C 10.9 °C 1018.2 hPa SSE 1.9 km/h 4.8 km/h 89% 0 mm 0 W/m2
00:49 12.7 °C 10.9 °C 1018.2 hPa SSE 2.7 km/h 8 km/h 89% 0 mm 0 W/m2
00:54 12.7 °C 10.9 °C 1018.2 hPa SSE 2.7 km/h 6.4 km/h 89.4% 0 mm 0 W/m2
00:59 12.6 °C 11 °C 1018.2 hPa SSE 2.4 km/h 4.8 km/h 90% 0 mm 0 W/m2
01:04 12.6 °C 11 °C 1018.2 hPa SSE 1.9 km/h 6.4 km/h 90% 0 mm 0 W/m2
01:09 12.6 °C 11 °C 1018.2 hPa SSE 3.1 km/h 8 km/h 90% 0 mm 0 W/m2
01:14 12.6 °C 11 °C 1018.2 hPa SSE 3.2 km/h 8 km/h 90% 0 mm 0 W/m2
01:19 12.6 °C 11 °C 1018.2 hPa SSE 1.3 km/h 6.4 km/h 90% 0 mm 0 W/m2
01:24 12.6 °C 11 °C 1018.2 hPa SSE 0.8 km/h 4.8 km/h 90% 0 mm 0 W/m2
01:29 12.7 °C 11.1 °C 1018.2 hPa SSE 2.1 km/h 6.4 km/h 90% 0 mm 0 W/m2
01:34 12.7 °C 11.1 °C 1018.2 hPa SSE 2.4 km/h 6.4 km/h 90% 0 mm 0 W/m2
01:39 12.7 °C 11.1 °C 1018.2 hPa SSE 2.9 km/h 8 km/h 90% 0 mm 0 W/m2
01:44 12.7 °C 11.1 °C 1018.2 hPa SSE 1.9 km/h 8 km/h 90% 0 mm 0 W/m2
01:49 12.7 °C 11.1 °C 1018.2 hPa SSE 1.8 km/h 6.4 km/h 90% 0 mm 0 W/m2
01:54 12.7 °C 11.1 °C 1018.2 hPa SSE 2.7 km/h 9.7 km/h 90% 0 mm 0 W/m2
01:59 12.7 °C 11.2 °C 1017.8 hPa SSE 1.4 km/h 6.4 km/h 90.6% 0 mm 0 W/m2
02:04 12.7 °C 11.3 °C 1017.8 hPa SSE 3.5 km/h 6.4 km/h 91% 0 mm 0 W/m2
02:09 12.7 °C 11.3 °C 1017.8 hPa SSE 2.4 km/h 8 km/h 91% 0 mm 0 W/m2
02:14 12.6 °C 11.2 °C 1017.8 hPa SSE 1.8 km/h 4.8 km/h 91% 0 mm 0 W/m2
02:19 12.5 °C 11.1 °C 1017.8 hPa SSE 1.9 km/h 6.4 km/h 91% 0 mm 0 W/m2
02:24 12.4 °C 11 °C 1017.8 hPa SSE 2.7 km/h 6.4 km/h 91% 0 mm 0 W/m2
02:29 12.4 °C 11 °C 1017.8 hPa SSE 3.4 km/h 4.8 km/h 91% 0 mm 0 W/m2
02:34 12.3 °C 10.9 °C 1017.8 hPa SSE 4.2 km/h 8 km/h 91% 0 mm 0 W/m2
02:39 12.3 °C 10.9 °C 1017.8 hPa SSE 2.7 km/h 6.4 km/h 91% 0 mm 0 W/m2
02:44 12.2 °C 10.8 °C 1017.8 hPa SSE 3.4 km/h 4.8 km/h 91% 0 mm 0 W/m2
02:49 12.2 °C 10.8 °C 1017.8 hPa SSE 3.2 km/h 6.4 km/h 91% 0 mm 0 W/m2
02:54 12.1 °C 10.7 °C 1017.8 hPa SSE 3.4 km/h 6.4 km/h 91% 0 mm 0 W/m2
02:59 12.1 °C 10.7 °C 1017.8 hPa SSE 2.1 km/h 4.8 km/h 91% 0 mm 0 W/m2
03:04 11.9 °C 10.5 °C 1017.8 hPa SSE 3.1 km/h 6.4 km/h 91% 0 mm 0 W/m2
03:09 11.9 °C 10.5 °C 1017.8 hPa SSE 3.1 km/h 8 km/h 91% 0 mm 0 W/m2
03:14 11.8 °C 10.4 °C 1017.8 hPa SSE 3.9 km/h 6.4 km/h 91% 0 mm 0 W/m2
03:19 11.7 °C 10.3 °C 1017.8 hPa SSE 1.6 km/h 4.8 km/h 91% 0 mm 0 W/m2
03:24 11.7 °C 10.3 °C 1017.8 hPa SSE 2.6 km/h 4.8 km/h 91% 0 mm 0 W/m2
03:29 11.7 °C 10.3 °C 1017.8 hPa SSE 0.6 km/h 3.2 km/h 91% 0 mm 0 W/m2
03:34 11.7 °C 10.3 °C 1017.8 hPa Calm   3.2 km/h 91.4% 0 mm 0 W/m2
03:39 11.7 °C 10.4 °C 1017.8 hPa Calm     92% 0 mm 0 W/m2
03:44 11.7 °C 10.4 °C 1017.8 hPa Calm   3.2 km/h 92% 0 mm 0 W/m2
03:49 11.7 °C 10.4 °C 1017.5 hPa SSE 1.6 km/h 3.2 km/h 92% 0 mm 0 W/m2
03:54 11.7 °C 10.4 °C 1017.8 hPa SSE 0.3 km/h 3.2 km/h 92% 0 mm 0 W/m2
03:59 11.7 °C 10.4 °C 1017.5 hPa SSE 0.3 km/h 1.6 km/h 92% 0 mm 0 W/m2
04:04 11.7 °C 10.4 °C 1017.5 hPa SSE 2.1 km/h 4.8 km/h 92% 0 mm 0 W/m2
04:09 11.8 °C 10.5 °C 1017.5 hPa SSE 2.4 km/h 8 km/h 92% 0 mm 0 W/m2
04:14 12 °C 10.7 °C 1017.5 hPa SSE 3.4 km/h 8 km/h 92% 0 mm 0 W/m2
04:19 12.1 °C 10.8 °C 1017.5 hPa SSE 2.9 km/h 6.4 km/h 92% 0 mm 0 W/m2
04:24 12.2 °C 10.9 °C 1017.5 hPa SSE 5.5 km/h 8 km/h 92% 0 mm 0 W/m2
04:29 12.3 °C 11 °C 1017.5 hPa SE 3.4 km/h 12.9 km/h 92% 0 mm 0 W/m2
04:34 12.4 °C 11.2 °C 1017.5 hPa ESE 7.7 km/h 12.9 km/h 92.6% 0 mm 0 W/m2
04:39 12.6 °C 11.5 °C 1017.5 hPa ESE 3.7 km/h 8 km/h 93% 0 mm 0 W/m2
04:44 12.6 °C 11.5 °C 1017.5 hPa ESE 5.1 km/h 11.3 km/h 93% 0 mm 0 W/m2
04:49 12.7 °C 11.6 °C 1017.2 hPa ESE 8 km/h 12.9 km/h 93% 0 mm 0 W/m2
04:54 12.7 °C 11.6 °C 1017.5 hPa ESE 3.7 km/h 8 km/h 93% 0 mm 0 W/m2
04:59 12.7 °C 11.6 °C 1017.5 hPa ESE 3.4 km/h 6.4 km/h 93% 0 mm 0 W/m2
05:04 12.7 °C 11.6 °C 1017.5 hPa ESE 6 km/h 11.3 km/h 93% 0 mm 0 W/m2
05:09 12.7 °C 11.6 °C 1017.5 hPa East 3.2 km/h 8 km/h 93% 0 mm 0 W/m2
05:14 12.7 °C 11.6 °C 1017.5 hPa ENE 2.7 km/h 4.8 km/h 93% 0 mm 0 W/m2
05:19 12.6 °C 11.5 °C 1017.5 hPa ENE 2.6 km/h 6.4 km/h 93% 0 mm 0 W/m2
05:24 12.6 °C 11.5 °C 1017.5 hPa East 3.2 km/h 8 km/h 93% 0 mm 5 W/m2
05:29 12.6 °C 11.5 °C 1017.5 hPa East 2.4 km/h 8 km/h 93% 0 mm 9 W/m2
05:34 12.6 °C 11.4 °C 1017.5 hPa East 3.1 km/h 6.4 km/h 93% 0 mm 11 W/m2
05:39 12.5 °C 11.4 °C 1017.5 hPa East 3.1 km/h 6.4 km/h 93% 0 mm 12 W/m2
05:44 12.4 °C 11.3 °C 1017.5 hPa East 5.1 km/h 8 km/h 93% 0 mm 14 W/m2
05:49 12.4 °C 11.3 °C 1017.5 hPa East 4.2 km/h 6.4 km/h 93% 0 mm 18 W/m2
05:54 12.4 °C 11.3 °C 1017.5 hPa East 2.1 km/h 6.4 km/h 93% 0 mm 25 W/m2
05:59 12.4 °C 11.3 °C 1017.5 hPa East 2.6 km/h 4.8 km/h 93% 0 mm 28 W/m2
06:04 12.4 °C 11.3 °C 1017.5 hPa East 3.4 km/h 6.4 km/h 93% 0 mm 28 W/m2
06:09 12.4 °C 11.3 °C 1017.5 hPa East 1.9 km/h 4.8 km/h 93% 0 mm 28 W/m2
06:13 12.4 °C 11.3 °C 1017.5 hPa East 2.7 km/h 4.8 km/h 93% 0 mm 28 W/m2
06:19 12.4 °C 11.3 °C 1017.5 hPa East 1 km/h 3.2 km/h 93% 0 mm 30 W/m2
06:24 12.4 °C 11.3 °C 1017.5 hPa East 1.9 km/h 4.8 km/h 93% 0 mm 28 W/m2
06:29 12.4 °C 11.3 °C 1017.8 hPa East 1.4 km/h 4.8 km/h 93% 0 mm 33 W/m2
06:34 12.4 °C 11.3 °C 1017.8 hPa East 3.2 km/h 6.4 km/h 93% 0 mm 42 W/m2
06:39 12.4 °C 11.3 °C 1017.8 hPa East 1.9 km/h 6.4 km/h 93% 0 mm 49 W/m2
06:44 12.5 °C 11.4 °C 1017.8 hPa East 0.3 km/h 6.4 km/h 93% 0 mm 58 W/m2
06:49 12.6 °C 11.5 °C 1017.8 hPa East 1.3 km/h 4.8 km/h 93% 0 mm 69 W/m2
06:54 12.6 °C 11.5 °C 1017.8 hPa East 2.3 km/h 6.4 km/h 93% 0 mm 105 W/m2
06:59 12.7 °C 11.6 °C 1017.8 hPa East 3.1 km/h 6.4 km/h 93% 0 mm 109 W/m2
07:04 12.8 °C 11.7 °C 1017.8 hPa East 1.9 km/h 6.4 km/h 93% 0 mm 69 W/m2
07:09 12.8 °C 11.7 °C 1017.8 hPa East 0.3 km/h 3.2 km/h 93% 0 mm 153 W/m2
07:14 13 °C 11.9 °C 1017.8 hPa East 2.3 km/h 4.8 km/h 93% 0 mm 169 W/m2
07:19 13.3 °C 12.3 °C 1017.8 hPa East 1.6 km/h 6.4 km/h 93% 0 mm 188 W/m2
07:24 13.6 °C 12.5 °C 1017.8 hPa East 3.4 km/h 11.3 km/h 93% 0 mm 216 W/m2
07:29 13.7 °C 12.6 °C 1017.8 hPa East 4 km/h 12.9 km/h 93% 0 mm 214 W/m2
07:34 13.8 °C 12.7 °C 1017.8 hPa ESE 3.2 km/h 12.9 km/h 93% 0 mm 125 W/m2
07:39 13.9 °C 12.7 °C 1017.8 hPa ESE 4 km/h 8 km/h 92.8% 0 mm 98 W/m2
07:44 13.9 °C 12.6 °C 1017.8 hPa ESE 3.1 km/h 8 km/h 92% 0 mm 95 W/m2
07:49 14.1 °C 12.7 °C 1017.8 hPa East 2.1 km/h 8 km/h 92% 0 mm 137 W/m2
07:54 14.2 °C 12.9 °C 1017.8 hPa East 2.3 km/h 4.8 km/h 92% 0 mm 95 W/m2
07:59 14.3 °C 12.9 °C 1017.8 hPa ESE 3.2 km/h 8 km/h 91.6% 0 mm 144 W/m2
08:04 14.4 °C 13 °C 1017.8 hPa ESE 2.1 km/h 6.4 km/h 91% 0 mm 329 W/m2
08:09 14.5 °C 12.8 °C 1017.8 hPa ESE 4 km/h 8 km/h 89.4% 0 mm 373 W/m2
08:14 14.4 °C 12.3 °C 1017.8 hPa SSE 7.6 km/h 11.3 km/h 86.8% 0 mm 345 W/m2
08:19 14.6 °C 12.2 °C 1017.8 hPa SSE 4.8 km/h 9.7 km/h 85.2% 0 mm 357 W/m2
08:24 15.1 °C 12.4 °C 1017.8 hPa SE 5.6 km/h 9.7 km/h 84.2% 0 mm 309 W/m2
08:29 15.1 °C 12.2 °C 1017.8 hPa ESE 5.8 km/h 14.5 km/h 83% 0 mm 297 W/m2
08:34 15.2 °C 12.3 °C 1017.8 hPa ESE 2.9 km/h 6.4 km/h 83% 0 mm 323 W/m2
08:39 15.3 °C 12.3 °C 1017.8 hPa ESE 1.3 km/h 8 km/h 82.4% 0 mm 457 W/m2
08:44 15.9 °C 12.7 °C 1017.8 hPa ESE 4 km/h 11.3 km/h 81.4% 0 mm 455 W/m2
08:49 15.9 °C 12.7 °C 1017.8 hPa SSE 6 km/h 12.9 km/h 81% 0 mm 455 W/m2
08:54 15.9 °C 12.6 °C 1017.8 hPa SE 4 km/h 14.5 km/h 81% 0 mm 452 W/m2
08:59 16.4 °C 13.1 °C 1017.8 hPa SE 3.9 km/h 11.3 km/h 80.8% 0 mm 461 W/m2
09:04 17.1 °C 13.3 °C 1017.8 hPa ESE 10.5 km/h 16.1 km/h 78.8% 0 mm 471 W/m2
09:09 17.1 °C 13.1 °C 1017.8 hPa SE 6.9 km/h 11.3 km/h 77.8% 0 mm 487 W/m2
09:14 17.2 °C 13.1 °C 1017.8 hPa SSE 6.3 km/h 14.5 km/h 76.8% 0 mm 508 W/m2
09:19 17 °C 12.5 °C 1017.8 hPa South 9.7 km/h 16.1 km/h 75.2% 0 mm 508 W/m2
09:24 17.3 °C 12.3 °C 1017.8 hPa South 9.3 km/h 16.1 km/h 73% 0 mm 520 W/m2
09:29 17.7 °C 12.5 °C 1017.8 hPa South 8.7 km/h 17.7 km/h 71.3% 0 mm 533 W/m2
09:34 17.8 °C 12.3 °C 1017.8 hPa South 7.1 km/h 17.7 km/h 70% 0 mm 548 W/m2
09:39 18.2 °C 12.6 °C 1017.8 hPa South 8.5 km/h 17.7 km/h 69.6% 0 mm 557 W/m2
09:44 18.2 °C 12.4 °C 1017.8 hPa South 7.2 km/h 16.1 km/h 69% 0 mm 584 W/m2
09:49 18.3 °C 12.4 °C 1017.5 hPa SSE 8.5 km/h 19.3 km/h 68.6% 0 mm 615 W/m2
09:54 18.4 °C 12.4 °C 1017.5 hPa SSE 9.2 km/h 16.1 km/h 68.4% 0 mm 642 W/m2
09:59 18.5 °C 12.7 °C 1017.5 hPa SSE 10 km/h 17.7 km/h 68.8% 0 mm 663 W/m2
10:04 18.5 °C 12.8 °C 1017.5 hPa SSE 9.8 km/h 17.7 km/h 69.4% 0 mm 717 W/m2
10:09 18.7 °C 12.8 °C 1017.5 hPa SSE 8.9 km/h 17.7 km/h 69% 0 mm 731 W/m2
10:14 18.8 °C 13.1 °C 1017.5 hPa SSW 7.1 km/h 17.7 km/h 69.2% 0 mm 747 W/m2
10:19 19.3 °C 13.2 °C 1017.5 hPa South 9.3 km/h 19.3 km/h 67.4% 0 mm 795 W/m2
10:24 19.3 °C 13.2 °C 1017.5 hPa SSE 6.4 km/h 17.7 km/h 68% 0 mm 752 W/m2
10:29 19.2 °C 13.2 °C 1017.5 hPa South 12.9 km/h 19.3 km/h 68% 0 mm 396 W/m2
10:34 19 °C 13.1 °C 1017.5 hPa SSE 12.9 km/h 17.7 km/h 68.4% 0 mm 589 W/m2
10:39 19.1 °C 13.2 °C 1017.5 hPa SSE 10.9 km/h 25.7 km/h 68.4% 0 mm 677 W/m2
10:44 19.2 °C 13.4 °C 1017.2 hPa SSE 8 km/h 17.7 km/h 69.2% 0 mm 745 W/m2
10:49 19.6 °C 13.8 °C 1017.2 hPa South 7.2 km/h 14.5 km/h 69.4% 0 mm 707 W/m2
10:54 19.6 °C 13.5 °C 1017.2 hPa South 11.3 km/h 19.3 km/h 68% 0 mm 533 W/m2
10:59 19.6 °C 13.5 °C 1017.2 hPa South 8.2 km/h 16.1 km/h 68% 0 mm 707 W/m2
11:04 19.8 °C 13.4 °C 1017.2 hPa SSE 8.4 km/h 20.9 km/h 67% 0 mm 724 W/m2
11:09 20.1 °C 13.7 °C 1017.2 hPa SSE 7.9 km/h 14.5 km/h 66.6% 0 mm 793 W/m2
11:14 20.2 °C 13.6 °C 1017.2 hPa South 9.3 km/h 16.1 km/h 65.8% 0 mm 737 W/m2
11:19 20.2 °C 13.5 °C 1017.2 hPa SSE 8.4 km/h 16.1 km/h 65.8% 0 mm 396 W/m2
11:24 20.3 °C 13.4 °C 1016.8 hPa South 6.8 km/h 16.1 km/h 64.5% 0 mm 879 W/m2
11:29 20.6 °C 13.3 °C 1016.8 hPa SSE 8.7 km/h 17.7 km/h 63.2% 0 mm 687 W/m2
11:34 19.9 °C 12.9 °C 1016.8 hPa SSE 11.9 km/h 20.9 km/h 64% 0 mm 686 W/m2
11:39 19.8 °C 12.9 °C 1016.8 hPa SSE 10.1 km/h 19.3 km/h 64.6% 0 mm 640 W/m2
11:44 20.1 °C 13.1 °C 1016.8 hPa SSE 12.2 km/h 17.7 km/h 64% 0 mm 663 W/m2
11:49 19.8 °C 12.9 °C 1016.8 hPa South 12.2 km/h 27.4 km/h 64.6% 0 mm 592 W/m2
11:54 20.1 °C 13.2 °C 1016.8 hPa SSE 8.4 km/h 14.5 km/h 64.8% 0 mm 568 W/m2
11:59 20.4 °C 13.4 °C 1016.5 hPa SSE 6 km/h 14.5 km/h 64.2% 0 mm 659 W/m2
12:04 20.8 °C 13.6 °C 1016.5 hPa SSE 7.9 km/h 19.3 km/h 63.6% 0 mm 775 W/m2
12:09 20.6 °C 13.6 °C 1016.5 hPa SSE 8.4 km/h 17.7 km/h 64% 0 mm 935 W/m2
12:14 20.6 °C 13.4 °C 1016.1 hPa SSE 7.1 km/h 14.5 km/h 63.6% 0 mm 921 W/m2
12:19 21.2 °C 13.9 °C 1016.1 hPa South 11.6 km/h 17.7 km/h 63.4% 0 mm 708 W/m2
12:24 21 °C 13.8 °C 1016.1 hPa SSE 9.7 km/h 17.7 km/h 63.8% 0 mm 888 W/m2
12:29 21.3 °C 13.9 °C 1016.1 hPa SSE 8.5 km/h 19.3 km/h 63% 0 mm 846 W/m2
12:34 21.1 °C 13.9 °C 1016.1 hPa South 9.2 km/h 19.3 km/h 63.8% 0 mm 891 W/m2
12:39 21.4 °C 14.1 °C 1015.8 hPa SE 8.7 km/h 24.1 km/h 62.8% 0 mm 956 W/m2
12:44 21.7 °C 14.2 °C 1015.8 hPa SSE 10.9 km/h 17.7 km/h 62.4% 0 mm 977 W/m2
12:49 21.7 °C 14.1 °C 1015.8 hPa SSE 13.8 km/h 20.9 km/h 62% 0 mm 977 W/m2
12:54 21.3 °C 13.7 °C 1015.8 hPa SSE 11.3 km/h 24.1 km/h 62.2% 0 mm 889 W/m2
12:59 21.3 °C 13.9 °C 1015.8 hPa SSE 10.6 km/h 25.7 km/h 62.6% 0 mm 921 W/m2
13:04 21.4 °C 13.8 °C 1015.8 hPa SSE 14.2 km/h 29 km/h 61.8% 0 mm 1035 W/m2
13:09 21.1 °C 13.5 °C 1015.8 hPa SE 15.1 km/h 25.7 km/h 62% 0 mm 853 W/m2
13:14 21.5 °C 13.9 °C 1015.8 hPa SSE 14.8 km/h 25.7 km/h 62% 0 mm 988 W/m2
13:19 21.5 °C 13.8 °C 1015.5 hPa SSE 16.6 km/h 25.7 km/h 61.8% 0 mm 998 W/m2
13:24 21.7 °C 13.8 °C 1015.5 hPa SSE 14.2 km/h 25.7 km/h 61% 0 mm 998 W/m2
13:29 21.7 °C 13.7 °C 1015.5 hPa SE 11.6 km/h 25.7 km/h 60.8% 0 mm 976 W/m2
13:34 21.8 °C 13.8 °C 1015.5 hPa SE 16.1 km/h 29 km/h 60.8% 0 mm 976 W/m2
13:39 21.8 °C 13.8 °C 1015.1 hPa SSE 13.8 km/h 29 km/h 60.3% 0 mm 974 W/m2
13:44 21.7 °C 13.6 °C 1015.1 hPa SSE 17.4 km/h 24.1 km/h 60.2% 0 mm 928 W/m2
13:49 21.4 °C 13.8 °C 1015.1 hPa SE 11.3 km/h 22.5 km/h 61.6% 0 mm 916 W/m2
13:54 22.1 °C 13.9 °C 1015.1 hPa SSE 14.2 km/h 29 km/h 60% 0 mm 900 W/m2
13:59 21.9 °C 13.7 °C 1015.1 hPa South 14.5 km/h 30.6 km/h 59.8% 0 mm 860 W/m2
14:04 22.4 °C 14.1 °C 1015.1 hPa ESE 13.5 km/h 25.7 km/h 59.4% 0 mm 877 W/m2
14:09 22.4 °C 13.9 °C 1015.1 hPa SSE 14.5 km/h 30.6 km/h 58.6% 0 mm 942 W/m2
14:14 22.6 °C 14.1 °C 1014.8 hPa SSE 16.4 km/h 32.2 km/h 58.4% 0 mm 819 W/m2
14:19 22.4 °C 13.8 °C 1014.8 hPa SSE 14.8 km/h 32.2 km/h 58.4% 0 mm 954 W/m2
14:24 22.4 °C 13.7 °C 1014.8 hPa SSE 16.1 km/h 24.1 km/h 58% 0 mm 568 W/m2
14:29 22.1 °C 13.4 °C 1014.8 hPa SSE 19.3 km/h 33.8 km/h 58.2% 0 mm 687 W/m2
14:34 21.9 °C 13.6 °C 1014.8 hPa SSE 11.6 km/h 22.5 km/h 59.2% 0 mm 485 W/m2
14:39 22.1 °C 13.6 °C 1014.8 hPa SSE 23.5 km/h 30.6 km/h 58.6% 0 mm 473 W/m2
14:44 22 °C 13.7 °C 1014.4 hPa South 12.6 km/h 25.7 km/h 59.2% 0 mm 323 W/m2
14:49 21.9 °C 13.5 °C 1014.4 hPa SSE 15.4 km/h 33.8 km/h 59% 0 mm 343 W/m2
14:54 21.7 °C 13.3 °C 1014.4 hPa South 15.9 km/h 27.4 km/h 59.2% 0 mm 499 W/m2
14:59 21.8 °C 13.4 °C 1014.4 hPa SSE 15.8 km/h 30.6 km/h 59% 0 mm 575 W/m2
15:04 22 °C 13.6 °C 1014.4 hPa South 16.6 km/h 29 km/h 59% 0 mm 541 W/m2
15:09 21.9 °C 13.5 °C 1014.4 hPa South 15.9 km/h 29 km/h 59% 0 mm 473 W/m2
15:14 21.9 °C 13.6 °C 1014.4 hPa SSE 12.7 km/h 27.4 km/h 59% 0 mm 353 W/m2
15:19 22.3 °C 13.8 °C 1014.1 hPa SSE 14.8 km/h 29 km/h 58.8% 0 mm 557 W/m2
15:24 22.2 °C 13.7 °C 1014.1 hPa SSE 12.1 km/h 24.1 km/h 58.6% 0 mm 288 W/m2
15:29 21.9 °C 13.7 °C 1014.1 hPa SSE 14.2 km/h 20.9 km/h 59.6% 0 mm 325 W/m2
15:34 21.9 °C 13.6 °C 1014.1 hPa SE 14.3 km/h 27.4 km/h 59.2% 0 mm 559 W/m2
15:39 22 °C 13.6 °C 1014.1 hPa SSE 12.1 km/h 27.4 km/h 59% 0 mm 294 W/m2
15:44 21.9 °C 13.5 °C 1013.8 hPa SSE 12.9 km/h 29 km/h 59% 0 mm 244 W/m2
15:49 21.8 °C 13.3 °C 1014.1 hPa SE 14.5 km/h 35.4 km/h 58.4% 0 mm 276 W/m2
15:54 21.9 °C 13.4 °C 1013.8 hPa SSE 15.9 km/h 27.4 km/h 58.4% 0 mm 510 W/m2
15:59 22 °C 13.4 °C 1013.8 hPa SSE 17.7 km/h 35.4 km/h 58% 0 mm 795 W/m2
16:04 22.1 °C 13.4 °C 1013.8 hPa SSE 20.3 km/h 35.4 km/h 58% 0 mm 751 W/m2
16:09 21.9 °C 13.4 °C 1013.8 hPa SSE 13.2 km/h 33.8 km/h 58.4% 0 mm 216 W/m2
16:14 22 °C 13.6 °C 1013.4 hPa SSE 16.7 km/h 25.7 km/h 59% 0 mm 230 W/m2
16:19 21.9 °C 13.5 °C 1013.4 hPa SSE 11.3 km/h 29 km/h 59% 0 mm 250 W/m2
16:24 22.1 °C 13.7 °C 1013.4 hPa SSE 9 km/h 19.3 km/h 59% 0 mm 181 W/m2
16:29 21.9 °C 13.6 °C 1013.4 hPa SE 13.2 km/h 25.7 km/h 59.2% 0 mm 97 W/m2
16:34 21.9 °C 13.8 °C 1013.1 hPa SSE 10.3 km/h 22.5 km/h 60% 0 mm 65 W/m2
16:39 21.8 °C 13.8 °C 1013.1 hPa SE 11.3 km/h 24.1 km/h 60.6% 0 mm 54 W/m2
16:44 21.7 °C 14.1 °C 1012.8 hPa SSE 8.4 km/h 17.7 km/h 61.8% 0 mm 56 W/m2
16:49 21.7 °C 14.3 °C 1012.8 hPa SE 8.9 km/h 17.7 km/h 63% 0 mm 51 W/m2
16:54 21.6 °C 14.2 °C 1012.8 hPa SE 9.5 km/h 27.4 km/h 63% 0 mm 39 W/m2
16:59 21.3 °C 14 °C 1012.8 hPa SE 13.8 km/h 22.5 km/h 63% 0 mm 39 W/m2
17:04 21.2 °C 13.8 °C 1012.8 hPa SE 15.4 km/h 27.4 km/h 63% 0 mm 33 W/m2
17:09 21.1 °C 14.1 °C 1013.1 hPa SSE 12.6 km/h 25.7 km/h 64.2% 0 mm 32 W/m2
17:14 20.7 °C 14.3 °C 1013.1 hPa SSE 10.6 km/h 22.5 km/h 66.8% 0 mm 18 W/m2
17:19 20.3 °C 14.4 °C 1013.4 hPa SSE 10.5 km/h 16.1 km/h 69% 0.51 mm 14 W/m2
17:24 19.8 °C 14.6 °C 1013.4 hPa SSE 5.6 km/h 16.1 km/h 72% 0.51 mm 14 W/m2
17:29 19.4 °C 14.5 °C 1013.8 hPa SSE 6.6 km/h 16.1 km/h 73.6% 0.51 mm 9 W/m2
17:34 19.3 °C 14.7 °C 1014.4 hPa South 10 km/h 19.3 km/h 74.8% 0.51 mm 5 W/m2
17:39 19.2 °C 14.8 °C 1014.4 hPa SW 10.3 km/h 22.5 km/h 75.8% 0.76 mm 11 W/m2
17:44 18.6 °C 14.3 °C 1014.8 hPa SW 15.3 km/h 29 km/h 76.4% 1.02 mm 30 W/m2
17:49 17.9 °C 13.9 °C 1014.8 hPa South 10.1 km/h 20.9 km/h 77.8% 1.27 mm 46 W/m2
17:54 17.5 °C 13.8 °C 1014.4 hPa SSW 8.4 km/h 22.5 km/h 79% 1.27 mm 62 W/m2
17:59 17.4 °C 14 °C 1014.4 hPa South 5.8 km/h 14.5 km/h 80.4% 1.27 mm 51 W/m2
18:04 17.3 °C 14.1 °C 1014.4 hPa South 8.5 km/h 14.5 km/h 81.4% 1.52 mm 54 W/m2
18:09 17.2 °C 14.1 °C 1014.4 hPa SSW 6.8 km/h 12.9 km/h 82% 1.52 mm 33 W/m2
18:14 17.1 °C 14.2 °C 1014.4 hPa South 5.6 km/h 11.3 km/h 82.8% 1.52 mm 37 W/m2
18:18 17.1 °C 14.3 °C 1014.1 hPa SSW 3.5 km/h 12.9 km/h 83.3% 1.52 mm 62 W/m2
18:24 16.9 °C 14.3 °C 1014.1 hPa South 3.9 km/h 11.3 km/h 84% 1.02 mm 76 W/m2
18:29 16.9 °C 14.2 °C 1014.1 hPa South 5.8 km/h 12.9 km/h 84% 0.76 mm 84 W/m2
18:34 16.9 °C 14.4 °C 1014.1 hPa South 5.3 km/h 12.9 km/h 84.8% 0.76 mm 84 W/m2
18:39 16.9 °C 14.4 °C 1014.1 hPa SSW 6.4 km/h 16.1 km/h 85% 0.76 mm 77 W/m2
18:44 16.9 °C 14.4 °C 1014.4 hPa South 4.7 km/h 17.7 km/h 85% 0.51 mm 91 W/m2
18:49 16.8 °C 14.3 °C 1014.4 hPa South 4.7 km/h 17.7 km/h 85.2% 0.51 mm 113 W/m2
18:54 16.8 °C 14.4 °C 1014.1 hPa SSW 7.2 km/h 14.5 km/h 86% 0.25 mm 67 W/m2
18:59 16.7 °C 14.3 °C 1014.1 hPa South 8.2 km/h 14.5 km/h 86% 0.25 mm 23 W/m2
19:04 16.7 °C 14.3 °C 1014.4 hPa South 7.9 km/h 14.5 km/h 86% 0.25 mm 14 W/m2
19:09 16.6 °C 14.3 °C 1014.4 hPa South 5.3 km/h 14.5 km/h 86.2% 0.51 mm 33 W/m2
19:14 16.3 °C 14.2 °C 1014.4 hPa SSW 7.9 km/h 16.1 km/h 87% 1.02 mm 84 W/m2
19:19 16.2 °C 14.1 °C 1014.4 hPa SSW 8.9 km/h 17.7 km/h 87.6% 1.52 mm 105 W/m2
19:29 15.9 °C 14.1 °C 1014.1 hPa South 8.5 km/h 14.5 km/h 89% 1.52 mm 123 W/m2
19:34 16.1 °C 14.2 °C 1014.1 hPa South 8.9 km/h 17.7 km/h 89% 1.52 mm 127 W/m2
19:39 16 °C 14.2 °C 1014.1 hPa SSW 6.8 km/h 17.7 km/h 89% 1.52 mm 148 W/m2
19:44 16 °C 14.4 °C 1014.1 hPa South 5.3 km/h 14.5 km/h 90% 1.52 mm 51 W/m2
19:49 15.9 °C 14.3 °C 1014.1 hPa SSW 6.4 km/h 16.1 km/h 90% 1.52 mm 37 W/m2
19:54 15.9 °C 14.3 °C 1014.4 hPa SSW 6.9 km/h 14.5 km/h 90% 1.52 mm 67 W/m2
19:59 15.9 °C 14.3 °C 1014.4 hPa SSW 7.1 km/h 16.1 km/h 90% 1.52 mm 109 W/m2
20:04 15.9 °C 14.3 °C 1014.4 hPa SW 9.7 km/h 16.1 km/h 90% 1.52 mm 46 W/m2
20:09 15.9 °C 14.3 °C 1014.4 hPa SSW 8 km/h 17.7 km/h 90% 1.52 mm 33 W/m2
20:14 15.8 °C 14.2 °C 1014.4 hPa SW 10 km/h 16.1 km/h 89.6% 1.02 mm 35 W/m2
20:19 15.8 °C 14 °C 1014.4 hPa SW 8.4 km/h 14.5 km/h 89% 0.25 mm 37 W/m2
20:24 15.8 °C 14.1 °C 1014.4 hPa SW 5.5 km/h 14.5 km/h 89% 0 mm 32 W/m2
20:29 15.8 °C 14 °C 1014.8 hPa WSW 7.1 km/h 16.1 km/h 89% 0 mm 28 W/m2
20:34 15.8 °C 14 °C 1014.8 hPa SW 6 km/h 12.9 km/h 89% 0 mm 28 W/m2
20:39 15.7 °C 13.9 °C 1015.1 hPa SW 6.4 km/h 12.9 km/h 89% 0 mm 21 W/m2
20:44 15.7 °C 13.9 °C 1014.8 hPa SW 4.7 km/h 11.3 km/h 89% 0 mm 18 W/m2
20:49 15.7 °C 13.9 °C 1014.8 hPa SSW 1.9 km/h 9.7 km/h 89% 0 mm 12 W/m2
20:54 15.7 °C 13.8 °C 1015.1 hPa SW 6.6 km/h 11.3 km/h 89% 0 mm 7 W/m2
20:59 15.6 °C 13.8 °C 1015.1 hPa SW 3.2 km/h 11.3 km/h 89% 0 mm 5 W/m2
21:04 15.6 °C 13.8 °C 1015.1 hPa SW 2.9 km/h 6.4 km/h 89% 0 mm 0 W/m2
21:09 15.5 °C 13.7 °C 1015.1 hPa SW 1.6 km/h 6.4 km/h 89% 0 mm 0 W/m2
21:14 15.4 °C 13.6 °C 1015.1 hPa SW 3.4 km/h 8 km/h 89% 0 mm 0 W/m2
21:18 15.4 °C 13.6 °C 1015.5 hPa SW 3.2 km/h 6.4 km/h 89% 0 mm 0 W/m2
21:24 15.3 °C 13.5 °C 1015.5 hPa SW 2.9 km/h 6.4 km/h 89% 0 mm 0 W/m2
21:29 15.3 °C 13.6 °C 1015.5 hPa SW 1.8 km/h 4.8 km/h 89.4% 0 mm 0 W/m2
21:34 15.3 °C 13.5 °C 1015.5 hPa SW 3.1 km/h 6.4 km/h 89.2% 0 mm 0 W/m2
21:39 15.2 °C 13.4 °C 1015.8 hPa SW 3.5 km/h 9.7 km/h 89% 0 mm 0 W/m2
21:44 15.2 °C 13.6 °C 1015.8 hPa SSW 3.5 km/h 8 km/h 90% 0 mm 0 W/m2
21:49 15.1 °C 13.5 °C 1015.8 hPa SSW 5.1 km/h 11.3 km/h 90% 0 mm 0 W/m2
21:54 14.9 °C 13.3 °C 1015.8 hPa SSW 3.9 km/h 9.7 km/h 90% 0 mm 0 W/m2
21:59 14.9 °C 13.3 °C 1015.8 hPa SSW 3.9 km/h 8 km/h 90% 0 mm 0 W/m2
22:04 14.9 °C 13.3 °C 1015.8 hPa SSW 4.2 km/h 6.4 km/h 90% 0 mm 0 W/m2
22:09 14.8 °C 13.2 °C 1015.8 hPa SSW 5.5 km/h 11.3 km/h 90% 0 mm 0 W/m2
22:14 14.8 °C 13.2 °C 1016.1 hPa SSW 4.7 km/h 11.3 km/h 90% 0 mm 0 W/m2
22:19 14.8 °C 13.2 °C 1016.1 hPa SW 10.5 km/h 17.7 km/h 90% 0 mm 0 W/m2
22:24 14.8 °C 13.2 °C 1016.1 hPa SW 7.7 km/h 14.5 km/h 90% 0 mm 0 W/m2
22:29 14.7 °C 13.1 °C 1016.1 hPa SW 8 km/h 16.1 km/h 90% 0 mm 0 W/m2
22:34 14.7 °C 13.1 °C 1016.1 hPa SW 4.7 km/h 9.7 km/h 90% 0 mm 0 W/m2
22:39 14.6 °C 12.9 °C 1016.5 hPa SW 4.7 km/h 8 km/h 90% 0 mm 0 W/m2
22:43 14.3 °C 12.7 °C 1016.5 hPa SW 4.8 km/h 9.7 km/h 89.5% 0 mm 0 W/m2
22:49 14.3 °C 12.6 °C 1016.5 hPa SSW 3.4 km/h 11.3 km/h 89.2% 0 mm 0 W/m2
22:54 14.2 °C 12.6 °C 1016.5 hPa SW 5.8 km/h 11.3 km/h 90% 0 mm 0 W/m2
22:59 14.1 °C 12.4 °C 1016.5 hPa SW 4.7 km/h 11.3 km/h 89.8% 0 mm 0 W/m2
23:04 13.9 °C 12.3 °C 1016.5 hPa SW 4.2 km/h 9.7 km/h 90% 0 mm 0 W/m2
23:09 13.8 °C 12.2 °C 1016.8 hPa SW 4 km/h 9.7 km/h 90% 0 mm 0 W/m2
23:14 13.7 °C 12.1 °C 1016.8 hPa SSW 4.3 km/h 6.4 km/h 90% 0 mm 0 W/m2
23:19 13.6 °C 11.9 °C 1016.8 hPa SW 5.1 km/h 12.9 km/h 89.6% 0 mm 0 W/m2
23:24 13.4 °C 11.7 °C 1016.8 hPa SW 6.1 km/h 12.9 km/h 89% 0 mm 0 W/m2
23:29 13.4 °C 11.6 °C 1016.8 hPa WSW 6.1 km/h 12.9 km/h 89% 0 mm 0 W/m2
23:34 13.3 °C 11.5 °C 1016.8 hPa SW 4.3 km/h 12.9 km/h 89% 0 mm 0 W/m2
23:39 13.2 °C 11.4 °C 1017.2 hPa SW 3.5 km/h 8 km/h 89% 0 mm 0 W/m2
23:44 13.2 °C 11.3 °C 1017.2 hPa WSW 2.7 km/h 8 km/h 89% 0 mm 0 W/m2
23:49 13 °C 11.2 °C 1017.2 hPa West 3.4 km/h 8 km/h 89% 0 mm 0 W/m2
23:54 12.9 °C 11.2 °C 1017.2 hPa WNW 3.1 km/h 6.4 km/h 89.8% 0 mm 0 W/m2
23:59 12.8 °C 11.2 °C 1017.2 hPa WNW 1.9 km/h 4.8 km/h 90% 0 mm 0 W/m2
Bath Spa Weather
Compliments of Weather Underground - 2 mb